createdAt,value
2023-05-01T00:01:31.288Z,21.07
2023-05-01T00:03:57.921Z,21.07
2023-05-01T00:06:24.758Z,21.05
2023-05-01T00:08:51.163Z,21.04
2023-05-01T00:11:17.501Z,21.04
2023-05-01T00:13:43.869Z,21.02
2023-05-01T00:16:11.100Z,21.01
2023-05-01T00:18:37.617Z,21.01
2023-05-01T00:21:04.235Z,21.03
2023-05-01T00:23:30.724Z,21.00
2023-05-01T00:25:57.386Z,21.01
2023-05-01T00:28:23.888Z,21.01
2023-05-01T00:30:50.757Z,21.02
2023-05-01T00:33:17.179Z,21.03
2023-05-01T00:35:44.011Z,21.01
2023-05-01T00:38:10.372Z,21.02
2023-05-01T00:40:46.572Z,21.02
2023-05-01T00:43:13.550Z,21.01
2023-05-01T00:45:40.526Z,21.02
2023-05-01T00:48:07.467Z,21.02
2023-05-01T00:50:33.962Z,21.02
2023-05-01T00:53:00.341Z,21.01
2023-05-01T00:55:26.943Z,21.00
2023-05-01T00:57:54.164Z,20.99
2023-05-01T01:00:22.465Z,20.99
2023-05-01T01:02:49.106Z,20.99
2023-05-01T01:05:16.592Z,21.00
2023-05-01T01:07:59.205Z,21.00
2023-05-01T01:10:51.056Z,20.98
2023-05-01T01:13:20.409Z,20.98
2023-05-01T01:15:59.529Z,20.98
2023-05-01T01:18:25.929Z,20.97
2023-05-01T01:21:07.520Z,20.96
2023-05-01T01:23:36.917Z,20.96
2023-05-01T01:26:08.572Z,20.95
2023-05-01T01:28:52.421Z,20.96
2023-05-01T01:31:26.542Z,20.96
2023-05-01T01:34:04.298Z,20.99
2023-05-01T01:36:46.508Z,20.96
2023-05-01T01:39:31.729Z,20.96
2023-05-01T01:41:59.180Z,20.95
2023-05-01T01:44:28.887Z,20.95
2023-05-01T01:46:55.298Z,20.93
2023-05-01T01:49:26.386Z,20.93
2023-05-01T01:51:55.211Z,20.94
2023-05-01T01:54:31.438Z,20.95
2023-05-01T01:56:59.554Z,20.95
2023-05-01T01:59:26.297Z,20.94
2023-05-01T02:01:53.532Z,20.92
2023-05-01T02:04:20.315Z,20.91
2023-05-01T02:06:47.246Z,20.89
2023-05-01T02:09:17.489Z,20.89
2023-05-01T02:11:44.576Z,20.88
2023-05-01T02:14:11.632Z,20.89
2023-05-01T02:16:38.146Z,20.89
2023-05-01T02:19:05.087Z,20.88
2023-05-01T02:21:33.142Z,20.87
2023-05-01T02:24:01.714Z,20.88
2023-05-01T02:26:29.472Z,20.87
2023-05-01T02:28:55.920Z,20.86
2023-05-01T02:31:23.123Z,20.86
2023-05-01T02:33:49.722Z,20.85
2023-05-01T02:36:16.252Z,20.83
2023-05-01T02:38:43.045Z,20.82
2023-05-01T02:41:11.539Z,20.81
2023-05-01T02:43:40.391Z,20.78
2023-05-01T02:46:07.530Z,20.77
2023-05-01T02:48:34.989Z,20.77
2023-05-01T02:51:02.096Z,20.76
2023-05-01T02:53:28.596Z,20.77
2023-05-01T02:55:55.211Z,20.80
2023-05-01T02:58:21.609Z,20.82
2023-05-01T03:00:49.569Z,20.83
2023-05-01T03:03:16.752Z,20.81
2023-05-01T03:05:43.298Z,20.83
2023-05-01T03:08:11.592Z,20.82
2023-05-01T03:10:44.353Z,20.83
2023-05-01T03:13:11.505Z,20.83
2023-05-01T03:15:38.673Z,20.83
2023-05-01T03:18:05.646Z,20.84
2023-05-01T03:20:32.071Z,20.86
2023-05-01T03:22:59.392Z,20.86
2023-05-01T03:25:25.819Z,20.85
2023-05-01T03:27:54.821Z,20.85
2023-05-01T03:30:21.629Z,20.88
2023-05-01T03:32:48.226Z,20.87
2023-05-01T03:35:14.748Z,20.87
2023-05-01T03:37:41.393Z,20.87
2023-05-01T03:40:08.035Z,20.85
2023-05-01T03:42:34.417Z,20.84
2023-05-01T03:45:01.274Z,20.82
2023-05-01T03:47:27.988Z,20.83
2023-05-01T03:49:55.483Z,20.82
2023-05-01T03:52:22.039Z,20.83
2023-05-01T03:54:48.586Z,20.82
2023-05-01T03:57:15.188Z,20.82
2023-05-01T03:59:43.767Z,20.84
2023-05-01T04:02:10.344Z,20.84
2023-05-01T04:04:36.840Z,20.83
2023-05-01T04:07:03.285Z,20.82
2023-05-01T04:09:32.378Z,20.82
2023-05-01T04:11:58.899Z,20.82
2023-05-01T04:14:25.276Z,20.82
2023-05-01T04:16:51.882Z,20.83
2023-05-01T04:19:18.249Z,20.84
2023-05-01T04:21:44.652Z,20.83
2023-05-01T04:24:11.096Z,20.84
2023-05-01T04:26:39.030Z,20.85
2023-05-01T04:29:05.407Z,20.86
2023-05-01T04:31:31.816Z,20.86
2023-05-01T04:33:58.683Z,20.88
2023-05-01T04:36:25.159Z,20.89
2023-05-01T04:38:51.537Z,20.91
2023-05-01T04:41:18.020Z,20.92
2023-05-01T04:43:44.352Z,20.93
2023-05-01T04:46:10.779Z,20.93
2023-05-01T04:48:37.138Z,20.95
2023-05-01T04:51:04.178Z,20.96
2023-05-01T04:53:30.912Z,20.98
2023-05-01T04:55:57.325Z,20.99
2023-05-01T04:58:24.219Z,21.00
2023-05-01T05:00:50.595Z,21.00
2023-05-01T05:03:19.113Z,21.02
2023-05-01T05:05:48.468Z,21.02
2023-05-01T05:08:14.921Z,21.03
2023-05-01T05:10:41.251Z,21.05
2023-05-01T05:13:07.638Z,21.06
2023-05-01T05:15:34.014Z,21.05
2023-05-01T05:18:00.441Z,21.06
2023-05-01T05:20:26.827Z,21.06
2023-05-01T05:22:53.294Z,21.06
2023-05-01T05:25:20.111Z,21.09
2023-05-01T05:27:46.530Z,21.13
2023-05-01T05:30:13.076Z,21.14
2023-05-01T05:32:39.569Z,21.17
2023-05-01T05:35:06.568Z,21.18
2023-05-01T05:37:32.966Z,21.19
2023-05-01T05:39:59.317Z,21.19
2023-05-01T05:42:25.717Z,21.19
2023-05-01T05:44:52.133Z,21.20
2023-05-01T05:47:18.456Z,21.20
2023-05-01T05:49:44.898Z,21.17
2023-05-01T05:52:11.252Z,21.18
2023-05-01T05:54:37.652Z,21.22
2023-05-01T05:57:04.102Z,21.21
2023-05-01T05:59:30.614Z,21.23
2023-05-01T06:01:57.516Z,21.25
2023-05-01T06:04:23.960Z,21.26
2023-05-01T06:06:50.419Z,21.27
2023-05-01T06:09:19.164Z,21.29
2023-05-01T06:11:45.858Z,21.31
2023-05-01T06:14:12.282Z,21.34
2023-05-01T06:16:38.978Z,21.35
2023-05-01T06:19:05.494Z,21.36
2023-05-01T06:21:32.541Z,21.37
2023-05-01T06:23:58.870Z,21.38
2023-05-01T06:26:26.164Z,21.40
2023-05-01T06:28:52.639Z,21.39
2023-05-01T06:31:19.044Z,21.41
2023-05-01T06:33:45.400Z,21.44
2023-05-01T06:36:11.916Z,21.47
2023-05-01T06:38:38.421Z,21.49
2023-05-01T06:41:05.324Z,21.52
2023-05-01T06:43:31.847Z,21.54
2023-05-01T06:45:58.306Z,21.56
2023-05-01T06:48:24.747Z,21.54
2023-05-01T06:50:51.315Z,21.52
2023-05-01T06:53:17.790Z,21.51
2023-05-01T06:55:44.229Z,21.54
2023-05-01T06:58:22.600Z,21.57
2023-05-01T07:00:50.561Z,21.62
2023-05-01T07:03:17.214Z,21.66
2023-05-01T07:05:43.714Z,21.69
2023-05-01T07:08:10.492Z,21.72
2023-05-01T07:10:37.301Z,21.75
2023-05-01T07:13:04.640Z,21.79
2023-05-01T07:15:31.019Z,21.80
2023-05-01T07:17:58.436Z,21.80
2023-05-01T07:20:24.974Z,21.79
2023-05-01T07:22:51.724Z,21.79
2023-05-01T07:25:18.200Z,21.80
2023-05-01T07:27:44.591Z,21.81
2023-05-01T07:30:11.309Z,21.82
2023-05-01T07:32:37.910Z,21.82
2023-05-01T07:35:05.075Z,21.84
2023-05-01T07:37:31.499Z,21.84
2023-05-01T07:39:58.593Z,21.85
2023-05-01T07:42:27.208Z,21.85
2023-05-01T07:44:53.596Z,21.86
2023-05-01T07:47:20.037Z,21.86
2023-05-01T07:49:46.414Z,21.87
2023-05-01T07:52:12.779Z,21.87
2023-05-01T07:54:39.164Z,21.90
2023-05-01T07:57:08.555Z,21.92
2023-05-01T07:59:34.988Z,21.93
2023-05-01T08:02:01.819Z,21.94
2023-05-01T08:04:28.396Z,21.96
2023-05-01T08:06:54.849Z,21.96
2023-05-01T08:09:21.338Z,21.97
2023-05-01T08:11:47.754Z,21.98
2023-05-01T08:14:15.530Z,22.00
2023-05-01T08:16:42.013Z,22.00
2023-05-01T08:19:08.499Z,22.00
2023-05-01T08:21:34.871Z,22.01
2023-05-01T08:24:01.317Z,22.02
2023-05-01T08:26:27.677Z,22.02
2023-05-01T08:28:54.183Z,22.03
2023-05-01T08:31:21.448Z,22.03
2023-05-01T08:33:48.042Z,21.99
2023-05-01T08:36:14.498Z,21.98
2023-05-01T08:38:40.926Z,21.94
2023-05-01T08:41:08.186Z,21.91
2023-05-01T08:43:34.728Z,21.94
2023-05-01T08:46:01.276Z,21.94
2023-05-01T08:48:28.196Z,21.93
2023-05-01T08:50:56.958Z,21.96
2023-05-01T08:53:24.124Z,21.97
2023-05-01T08:55:52.175Z,21.97
2023-05-01T08:58:19.774Z,21.96
2023-05-01T09:00:47.063Z,21.97
2023-05-01T09:03:16.809Z,21.99
2023-05-01T09:05:43.362Z,22.00
2023-05-01T09:08:09.967Z,22.04
2023-05-01T09:10:41.568Z,22.07
2023-05-01T09:13:09.985Z,22.04
2023-05-01T09:15:36.578Z,22.00
2023-05-01T09:18:04.208Z,21.99
2023-05-01T09:20:32.568Z,21.99
2023-05-01T09:22:59.097Z,21.98
2023-05-01T09:25:25.604Z,21.96
2023-05-01T09:27:52.284Z,21.93
2023-05-01T09:30:31.028Z,21.88
2023-05-01T09:33:14.050Z,21.75
2023-05-01T09:35:49.634Z,21.70
2023-05-01T09:38:20.029Z,21.69
2023-05-01T09:40:47.038Z,21.72
2023-05-01T09:43:13.527Z,21.74
2023-05-01T09:45:42.553Z,21.77
2023-05-01T09:48:13.199Z,21.79
2023-05-01T09:50:42.255Z,21.81
2023-05-01T09:53:08.653Z,21.83
2023-05-01T09:55:36.879Z,21.84
2023-05-01T09:58:03.649Z,21.86
2023-05-01T10:00:30.293Z,21.87
2023-05-01T10:02:56.999Z,21.88
2023-05-01T10:05:23.620Z,21.90
2023-05-01T10:07:57.365Z,21.91
2023-05-01T10:10:23.908Z,21.92
2023-05-01T10:12:50.770Z,21.93
2023-05-01T10:15:25.548Z,21.94
2023-05-01T10:17:53.658Z,21.95
2023-05-01T10:20:20.204Z,21.96
2023-05-01T10:22:46.760Z,21.97
2023-05-01T10:25:13.347Z,21.98
2023-05-01T10:27:40.880Z,21.99
2023-05-01T10:30:07.865Z,22.00
2023-05-01T10:32:35.153Z,22.01
2023-05-01T10:35:08.641Z,22.02
2023-05-01T10:37:40.726Z,22.02
2023-05-01T10:40:25.672Z,22.03
2023-05-01T10:43:10.839Z,22.04
2023-05-01T10:45:37.409Z,22.04
2023-05-01T10:48:03.954Z,22.05
2023-05-01T10:50:30.437Z,22.05
2023-05-01T10:53:11.985Z,22.06
2023-05-01T10:55:38.647Z,22.07
2023-05-01T10:58:05.292Z,22.07
2023-05-01T11:00:34.036Z,22.08
2023-05-01T11:03:19.184Z,22.09
2023-05-01T11:06:01.412Z,22.09
2023-05-01T11:08:31.566Z,22.09
2023-05-01T11:10:58.033Z,22.10
2023-05-01T11:13:43.077Z,22.12
2023-05-01T11:18:45.846Z,22.12
2023-05-01T11:21:12.244Z,22.13
2023-05-01T11:23:38.712Z,22.13
2023-05-01T11:26:05.167Z,22.15
2023-05-01T11:28:31.826Z,22.14
2023-05-01T11:30:58.229Z,22.17
2023-05-01T11:33:25.958Z,22.16
2023-05-01T11:36:00.185Z,22.17
2023-05-01T11:38:26.613Z,22.18
2023-05-01T11:40:57.455Z,22.17
2023-05-01T11:43:23.843Z,22.18
2023-05-01T11:45:52.071Z,22.18
2023-05-01T11:48:18.534Z,22.18
2023-05-01T11:50:45.116Z,22.18
2023-05-01T11:53:12.820Z,22.18
2023-05-01T11:55:40.285Z,22.19
2023-05-01T11:58:07.179Z,22.19
2023-05-01T12:00:36.686Z,22.20
2023-05-01T12:03:06.869Z,22.20
2023-05-01T12:05:37.347Z,22.18
2023-05-01T12:08:11.528Z,22.20
2023-05-01T12:10:38.704Z,22.19
2023-05-01T12:13:06.366Z,22.19
2023-05-01T12:15:35.196Z,22.20
2023-05-01T12:18:01.804Z,22.19
2023-05-01T12:20:38.420Z,22.20
2023-05-01T12:23:06.012Z,22.20
2023-05-01T12:25:34.025Z,22.19
2023-05-01T12:28:01.993Z,22.21
2023-05-01T12:30:29.660Z,22.20
2023-05-01T12:32:57.184Z,22.21
2023-05-01T12:35:28.874Z,22.20
2023-05-01T12:37:56.042Z,22.20
2023-05-01T12:40:22.964Z,22.21
2023-05-01T12:42:57.270Z,22.20
2023-05-01T12:45:24.411Z,22.20
2023-05-01T12:47:51.088Z,22.21
2023-05-01T12:50:17.555Z,22.21
2023-05-01T12:52:44.066Z,22.20
2023-05-01T12:55:12.630Z,22.21
2023-05-01T12:57:52.623Z,22.21
2023-05-01T13:00:19.049Z,22.21
2023-05-01T13:02:45.502Z,22.20
2023-05-01T13:05:12.274Z,22.20
2023-05-01T13:07:40.147Z,22.25
2023-05-01T13:10:07.064Z,22.27
2023-05-01T13:12:34.163Z,22.25
2023-05-01T13:15:00.751Z,22.23
2023-05-01T13:17:28.109Z,22.21
2023-05-01T13:20:01.504Z,22.22
2023-05-01T13:22:29.281Z,22.23
2023-05-01T13:24:55.851Z,22.24
2023-05-01T13:27:23.673Z,22.22
2023-05-01T13:30:00.841Z,22.24
2023-05-01T13:32:28.165Z,22.24
2023-05-01T13:34:54.678Z,22.23
2023-05-01T13:37:23.949Z,22.25
2023-05-01T13:39:50.302Z,22.26
2023-05-01T13:42:26.784Z,22.25
2023-05-01T13:44:54.637Z,22.26
2023-05-01T13:47:23.240Z,22.24
2023-05-01T13:49:49.748Z,22.25
2023-05-01T13:52:19.599Z,22.26
2023-05-01T13:54:46.895Z,22.26
2023-05-01T13:57:13.792Z,22.26
2023-05-01T13:59:41.366Z,22.26
2023-05-01T14:02:27.224Z,22.25
2023-05-01T14:04:53.994Z,22.26
2023-05-01T14:07:21.312Z,22.25
2023-05-01T14:09:52.622Z,22.25
2023-05-01T14:12:20.026Z,22.27
2023-05-01T14:14:48.027Z,22.26
2023-05-01T14:17:14.697Z,22.26
2023-05-01T14:19:41.614Z,22.23
2023-05-01T14:22:08.062Z,22.25
2023-05-01T14:24:39.525Z,22.25
2023-05-01T14:27:09.548Z,22.26
2023-05-01T14:29:36.327Z,22.24
2023-05-01T14:32:03.998Z,22.26
2023-05-01T14:34:30.395Z,22.25
2023-05-01T14:36:56.789Z,22.26
2023-05-01T14:39:23.209Z,22.23
2023-05-01T14:41:49.696Z,22.25
2023-05-01T14:44:17.917Z,22.25
2023-05-01T14:46:51.148Z,22.23
2023-05-01T14:49:21.790Z,22.23
2023-05-01T14:51:48.727Z,22.25
2023-05-01T14:54:15.956Z,22.24
2023-05-01T14:56:43.207Z,22.25
2023-05-01T14:59:09.590Z,22.23
2023-05-01T15:01:36.346Z,22.26
2023-05-01T15:04:03.911Z,22.23
2023-05-01T15:06:30.623Z,22.25
2023-05-01T15:08:57.059Z,22.25
2023-05-01T15:11:23.500Z,22.26
2023-05-01T15:13:50.470Z,22.25
2023-05-01T15:16:17.433Z,22.25
2023-05-01T15:18:43.958Z,22.24
2023-05-01T15:21:10.311Z,22.24
2023-05-01T15:23:37.208Z,22.24
2023-05-01T15:26:03.847Z,22.25
2023-05-01T15:28:30.396Z,22.25
2023-05-01T15:30:56.822Z,22.23
2023-05-01T15:33:54.228Z,22.22
2023-05-01T15:36:20.666Z,22.22
2023-05-01T15:38:47.601Z,22.22
2023-05-01T15:41:13.984Z,22.23
2023-05-01T15:43:41.029Z,22.22
2023-05-01T15:46:07.540Z,22.21
2023-05-01T15:48:34.010Z,22.24
2023-05-01T15:51:00.583Z,22.21
2023-05-01T15:53:26.900Z,22.26
2023-05-01T15:55:56.423Z,22.32
2023-05-01T15:58:23.069Z,22.38
2023-05-01T16:00:50.214Z,22.42
2023-05-01T16:03:16.825Z,22.41
2023-05-01T16:05:46.527Z,22.42
2023-05-01T16:08:12.947Z,22.46
2023-05-01T16:10:40.527Z,22.47
2023-05-01T16:13:07.023Z,22.49
2023-05-01T16:15:33.618Z,22.50
2023-05-01T16:18:03.975Z,22.51
2023-05-01T16:20:34.404Z,22.51
2023-05-01T16:23:00.752Z,22.52
2023-05-01T16:25:27.143Z,22.54
2023-05-01T16:27:53.556Z,22.55
2023-05-01T16:30:22.026Z,22.56
2023-05-01T16:32:48.398Z,22.57
2023-05-01T16:35:17.728Z,22.59
2023-05-01T16:37:44.166Z,22.60
2023-05-01T16:40:15.490Z,22.62
2023-05-01T16:42:42.435Z,22.62
2023-05-01T16:45:09.514Z,22.64
2023-05-01T16:47:36.177Z,22.65
2023-05-01T16:50:03.503Z,22.65
2023-05-01T16:52:30.270Z,22.63
2023-05-01T16:54:56.851Z,22.61
2023-05-01T16:57:23.193Z,22.58
2023-05-01T16:59:49.592Z,22.56
2023-05-01T17:02:16.241Z,22.54
2023-05-01T17:04:42.720Z,22.55
2023-05-01T17:07:09.132Z,22.53
2023-05-01T17:09:35.550Z,22.53
2023-05-01T17:12:03.409Z,22.52
2023-05-01T17:14:30.525Z,22.52
2023-05-01T17:17:00.353Z,22.51
2023-05-01T17:19:26.818Z,22.49
2023-05-01T17:21:53.221Z,22.47
2023-05-01T17:24:19.687Z,22.46
2023-05-01T17:26:46.784Z,22.46
2023-05-01T17:29:13.214Z,22.46
2023-05-01T17:31:39.669Z,22.45
2023-05-01T17:34:06.147Z,22.45
2023-05-01T17:36:32.640Z,22.43
2023-05-01T17:39:01.360Z,22.45
2023-05-01T17:41:27.855Z,22.44
2023-05-01T17:43:55.187Z,22.43
2023-05-01T17:46:21.690Z,22.43
2023-05-01T17:48:48.708Z,22.43
2023-05-01T17:51:15.319Z,22.43
2023-05-01T17:53:41.927Z,22.42
2023-05-01T17:56:08.968Z,22.42
2023-05-01T17:58:35.395Z,22.42
2023-05-01T18:01:02.980Z,22.41
2023-05-01T18:03:31.167Z,22.41
2023-05-01T18:05:57.771Z,22.40
2023-05-01T18:08:24.234Z,22.39
2023-05-01T18:10:50.996Z,22.40
2023-05-01T18:13:17.483Z,22.38
2023-05-01T18:15:43.854Z,22.38
2023-05-01T18:18:10.339Z,22.38
2023-05-01T18:20:36.873Z,22.38
2023-05-01T18:23:03.836Z,22.36
2023-05-01T18:25:30.394Z,22.36
2023-05-01T18:27:57.519Z,22.35
2023-05-01T18:30:24.275Z,22.35
2023-05-01T18:32:50.688Z,22.34
2023-05-01T18:35:18.902Z,22.34
2023-05-01T18:37:45.544Z,22.34
2023-05-01T18:40:12.644Z,22.33
2023-05-01T18:42:42.289Z,22.32
2023-05-01T18:45:10.024Z,22.32
2023-05-01T18:47:36.485Z,22.31
2023-05-01T18:50:03.037Z,22.30
2023-05-01T18:52:29.883Z,22.30
2023-05-01T18:54:56.290Z,22.29
2023-05-01T18:57:23.012Z,22.30
2023-05-01T18:59:49.664Z,22.28
2023-05-01T19:02:16.303Z,22.28
2023-05-01T19:04:56.121Z,22.28
2023-05-01T19:07:24.191Z,22.28
2023-05-01T19:09:50.739Z,22.27
2023-05-01T19:12:17.154Z,22.26
2023-05-01T19:14:43.612Z,22.25
2023-05-01T19:17:10.799Z,22.25
2023-05-01T19:19:37.220Z,22.25
2023-05-01T19:22:03.602Z,22.22
2023-05-01T19:24:30.005Z,22.23
2023-05-01T19:26:56.419Z,22.20
2023-05-01T19:29:22.841Z,22.20
2023-05-01T19:31:49.376Z,22.19
2023-05-01T19:34:15.866Z,22.19
2023-05-01T19:36:42.267Z,22.17
2023-05-01T19:39:08.959Z,22.17
2023-05-01T19:41:35.437Z,22.17
2023-05-01T19:44:01.852Z,22.16
2023-05-01T19:46:28.313Z,22.15
2023-05-01T19:48:54.752Z,22.14
2023-05-01T19:51:21.391Z,22.13
2023-05-01T19:53:47.828Z,22.12
2023-05-01T19:56:14.219Z,22.13
2023-05-01T19:58:40.793Z,22.12
2023-05-01T20:03:35.833Z,22.09
2023-05-01T20:06:02.416Z,22.08
2023-05-01T20:08:28.777Z,22.07
2023-05-01T20:10:56.767Z,22.07
2023-05-01T20:13:23.266Z,22.07
2023-05-01T20:15:51.185Z,22.06
2023-05-01T20:18:18.081Z,22.07
2023-05-01T20:20:44.714Z,22.07
2023-05-01T20:23:11.966Z,22.06
2023-05-01T20:25:38.553Z,22.06
2023-05-01T20:28:05.440Z,22.05
2023-05-01T20:30:31.843Z,22.05
2023-05-01T20:32:58.286Z,22.04
2023-05-01T20:35:24.707Z,22.04
2023-05-01T20:37:51.178Z,22.03
2023-05-01T20:40:18.697Z,22.02
2023-05-01T20:42:45.100Z,22.01
2023-05-01T20:45:11.786Z,22.02
2023-05-01T20:47:38.289Z,22.01
2023-05-01T20:50:04.872Z,22.00
2023-05-01T20:52:31.202Z,22.00
2023-05-01T20:54:57.578Z,21.99
2023-05-01T20:57:23.939Z,21.98
2023-05-01T20:59:50.897Z,21.97
2023-05-01T21:02:17.584Z,21.98
2023-05-01T21:04:46.120Z,21.97
2023-05-01T21:07:12.454Z,21.98
2023-05-01T21:09:43.507Z,21.97
2023-05-01T21:12:09.827Z,21.97
2023-05-01T21:14:36.344Z,21.94
2023-05-01T21:17:02.782Z,21.94
2023-05-01T21:19:29.102Z,21.94
2023-05-01T21:21:55.504Z,21.93
2023-05-01T21:24:25.619Z,21.93
2023-05-01T21:26:55.004Z,21.93
2023-05-01T21:29:21.465Z,21.92
2023-05-01T21:31:49.079Z,21.91
2023-05-01T21:34:17.251Z,21.93
2023-05-01T21:36:45.065Z,21.91
2023-05-01T21:39:11.632Z,21.91
2023-05-01T21:41:39.417Z,21.91
2023-05-01T21:44:06.903Z,21.88
2023-05-01T21:46:35.837Z,21.88
2023-05-01T21:49:02.319Z,21.87
2023-05-01T21:51:28.834Z,21.83
2023-05-01T21:53:55.645Z,21.80
2023-05-01T21:56:23.550Z,21.86
2023-05-01T21:58:50.170Z,21.95
2023-05-01T22:01:16.936Z,22.00
2023-05-01T22:03:44.510Z,22.02
2023-05-01T22:06:11.132Z,22.03
2023-05-01T22:08:37.526Z,22.05
2023-05-01T22:11:04.735Z,22.05
2023-05-01T22:13:33.588Z,22.05
2023-05-01T22:16:00.411Z,22.05
2023-05-01T22:18:27.380Z,22.03
2023-05-01T22:20:54.068Z,22.04
2023-05-01T22:23:20.746Z,22.07
2023-05-01T22:25:47.638Z,22.08
2023-05-01T22:30:44.225Z,22.12
2023-05-01T22:33:10.749Z,22.10
2023-05-01T22:35:37.373Z,22.09
2023-05-01T22:38:03.756Z,22.07
2023-05-01T22:40:30.829Z,22.07
2023-05-01T22:42:57.214Z,22.07
2023-05-01T22:45:23.597Z,22.09
2023-05-01T22:47:50.096Z,22.08
2023-05-01T22:50:16.656Z,22.09
2023-05-01T22:52:44.600Z,22.09
2023-05-01T22:55:12.803Z,22.10
2023-05-01T22:57:39.204Z,22.09
2023-05-01T23:00:06.593Z,22.09
2023-05-01T23:02:33.600Z,22.10
2023-05-01T23:07:26.980Z,22.12
2023-05-01T23:09:53.376Z,22.12
2023-05-01T23:14:46.610Z,22.12
2023-05-01T23:17:13.380Z,22.12
2023-05-01T23:19:40.175Z,22.10
2023-05-01T23:22:11.051Z,22.09
2023-05-01T23:24:41.368Z,22.09
2023-05-01T23:27:08.363Z,22.08
2023-05-01T23:29:35.100Z,22.07
2023-05-01T23:32:01.499Z,22.09
2023-05-01T23:34:28.541Z,22.09
2023-05-01T23:36:54.927Z,22.08
2023-05-01T23:39:21.345Z,22.08
2023-05-01T23:41:47.708Z,22.08
2023-05-01T23:44:14.069Z,22.08
2023-05-01T23:46:40.632Z,22.09
2023-05-01T23:49:07.048Z,22.10
2023-05-01T23:51:33.456Z,22.09
2023-05-01T23:54:00.196Z,22.08
2023-05-01T23:56:26.622Z,22.07
2023-05-01T23:58:53.018Z,22.06
